sensor_id;sensor_type;location;lat;lon;timestamp;pressure;altitude;pressure_sealevel;temperature;humidity
7888;BME280;3989;48.810;9.208;2023-04-19T00:01:58;99370.44;;;10.03;nan
7888;BME280;3989;48.810;9.208;2023-04-19T00:04:26;99331.28;;;9.70;nan
7888;BME280;3989;48.810;9.208;2023-04-19T00:06:52;99337.66;;;9.77;nan
7888;BME280;3989;48.810;9.208;2023-04-19T00:09:19;99257.81;;;9.26;nan
7888;BME280;3989;48.810;9.208;2023-04-19T00:11:45;99363.56;;;9.93;nan
7888;BME280;3989;48.810;9.208;2023-04-19T00:14:12;99365.88;;;9.88;nan
7888;BME280;3989;48.810;9.208;2023-04-19T00:16:39;99348.19;;;9.79;nan
7888;BME280;3989;48.810;9.208;2023-04-19T00:19:06;99285.31;;;9.34;nan
7888;BME280;3989;48.810;9.208;2023-04-19T00:21:34;99363.22;;;9.88;nan
7888;BME280;3989;48.810;9.208;2023-04-19T00:24:01;99358.03;;;9.86;nan
7888;BME280;3989;48.810;9.208;2023-04-19T00:26:28;99355.69;;;9.83;nan
7888;BME280;3989;48.810;9.208;2023-04-19T00:28:54;99163.00;;;8.65;nan
7888;BME280;3989;48.810;9.208;2023-04-19T00:31:21;99355.16;;;9.80;nan
7888;BME280;3989;48.810;9.208;2023-04-19T00:33:47;99323.06;;;9.56;nan
7888;BME280;3989;48.810;9.208;2023-04-19T00:36:14;99234.72;;;9.01;nan
7888;BME280;3989;48.810;9.208;2023-04-19T00:38:42;99161.44;;;8.55;nan
7888;BME280;3989;48.810;9.208;2023-04-19T00:41:08;99355.97;;;9.72;nan
7888;BME280;3989;48.810;9.208;2023-04-19T00:43:35;99360.63;;;9.70;nan
7888;BME280;3989;48.810;9.208;2023-04-19T00:46:01;99343.97;;;9.68;nan
7888;BME280;3989;48.810;9.208;2023-04-19T00:48:28;99349.28;;;9.68;nan
7888;BME280;3989;48.810;9.208;2023-04-19T00:50:55;99344.94;;;9.67;nan
7888;BME280;3989;48.810;9.208;2023-04-19T00:53:21;99277.09;;;9.20;nan
7888;BME280;3989;48.810;9.208;2023-04-19T00:55:49;99283.09;;;9.22;nan
7888;BME280;3989;48.810;9.208;2023-04-19T00:58:16;99302.31;;;9.33;nan
7888;BME280;3989;48.810;9.208;2023-04-19T01:00:43;99345.72;;;9.60;nan
7888;BME280;3989;48.810;9.208;2023-04-19T01:03:10;99293.91;;;9.20;nan
7888;BME280;3989;48.810;9.208;2023-04-19T01:05:37;99336.19;;;9.49;nan
7888;BME280;3989;48.810;9.208;2023-04-19T01:08:04;99286.56;;;9.14;nan
7888;BME280;3989;48.810;9.208;2023-04-19T01:10:32;99310.84;;;9.37;nan
7888;BME280;3989;48.810;9.208;2023-04-19T01:13:00;99338.53;;;9.52;nan
7888;BME280;3989;48.810;9.208;2023-04-19T01:15:27;99337.69;;;9.52;nan
7888;BME280;3989;48.810;9.208;2023-04-19T01:17:53;99313.63;;;9.35;nan
7888;BME280;3989;48.810;9.208;2023-04-19T01:20:20;99328.88;;;9.51;nan
7888;BME280;3989;48.810;9.208;2023-04-19T01:22:48;99270.59;;;9.14;nan
7888;BME280;3989;48.810;9.208;2023-04-19T01:25:15;99318.84;;;9.45;nan
7888;BME280;3989;48.810;9.208;2023-04-19T01:27:41;99330.88;;;9.49;nan
7888;BME280;3989;48.810;9.208;2023-04-19T01:30:09;99321.66;;;9.43;nan
7888;BME280;3989;48.810;9.208;2023-04-19T01:32:35;99331.53;;;9.51;nan
7888;BME280;3989;48.810;9.208;2023-04-19T01:35:02;99320.03;;;9.50;nan
7888;BME280;3989;48.810;9.208;2023-04-19T01:37:29;99264.41;;;9.14;nan
7888;BME280;3989;48.810;9.208;2023-04-19T01:39:57;99257.41;;;9.13;nan
7888;BME280;3989;48.810;9.208;2023-04-19T01:42:24;99230.69;;;8.96;nan
7888;BME280;3989;48.810;9.208;2023-04-19T01:44:50;99285.13;;;9.28;nan
7888;BME280;3989;48.810;9.208;2023-04-19T01:47:17;99167.06;;;8.52;nan
7888;BME280;3989;48.810;9.208;2023-04-19T01:49:43;99307.69;;;9.41;nan
7888;BME280;3989;48.810;9.208;2023-04-19T01:52:10;99146.72;;;8.42;nan
7888;BME280;3989;48.810;9.208;2023-04-19T01:54:36;99064.06;;;7.92;nan
7888;BME280;3989;48.810;9.208;2023-04-19T01:57:04;99299.47;;;9.35;nan
7888;BME280;3989;48.810;9.208;2023-04-19T01:59:31;99258.91;;;9.07;nan
7888;BME280;3989;48.810;9.208;2023-04-19T02:01:57;99186.25;;;8.63;nan
7888;BME280;3989;48.810;9.208;2023-04-19T02:04:24;99184.59;;;8.62;nan
7888;BME280;3989;48.810;9.208;2023-04-19T02:06:51;99306.28;;;9.29;nan
7888;BME280;3989;48.810;9.208;2023-04-19T02:09:17;99127.81;;;8.28;nan
7888;BME280;3989;48.810;9.208;2023-04-19T02:11:44;99122.78;;;8.25;nan
7888;BME280;3989;48.810;9.208;2023-04-19T02:14:12;99180.34;;;8.52;nan
7888;BME280;3989;48.810;9.208;2023-04-19T02:16:38;99258.38;;;9.04;nan
7888;BME280;3989;48.810;9.208;2023-04-19T02:19:05;99261.56;;;9.07;nan
7888;BME280;3989;48.810;9.208;2023-04-19T02:21:31;99225.63;;;8.85;nan
7888;BME280;3989;48.810;9.208;2023-04-19T02:23:58;99278.78;;;9.21;nan
7888;BME280;3989;48.810;9.208;2023-04-19T02:26:25;99274.44;;;9.20;nan
7888;BME280;3989;48.810;9.208;2023-04-19T02:28:51;99270.94;;;9.19;nan
7888;BME280;3989;48.810;9.208;2023-04-19T02:31:19;99153.91;;;8.50;nan
7888;BME280;3989;48.810;9.208;2023-04-19T02:33:46;99180.19;;;8.53;nan
7888;BME280;3989;48.810;9.208;2023-04-19T02:36:12;99264.09;;;9.17;nan
7888;BME280;3989;48.810;9.208;2023-04-19T02:38:39;99237.84;;;8.96;nan
7888;BME280;3989;48.810;9.208;2023-04-19T02:41:06;99267.59;;;9.17;nan
7888;BME280;3989;48.810;9.208;2023-04-19T02:43:32;99255.53;;;9.05;nan
7888;BME280;3989;48.810;9.208;2023-04-19T02:45:59;99270.06;;;9.11;nan
7888;BME280;3989;48.810;9.208;2023-04-19T02:48:27;99222.81;;;8.87;nan
7888;BME280;3989;48.810;9.208;2023-04-19T02:50:53;99226.53;;;8.94;nan
7888;BME280;3989;48.810;9.208;2023-04-19T02:53:21;99089.47;;;8.13;nan
7888;BME280;3989;48.810;9.208;2023-04-19T02:55:48;99262.44;;;9.16;nan
7888;BME280;3989;48.810;9.208;2023-04-19T02:58:14;99258.09;;;9.15;nan
7888;BME280;3989;48.810;9.208;2023-04-19T03:00:41;99262.44;;;9.16;nan
7888;BME280;3989;48.810;9.208;2023-04-19T03:03:08;99247.41;;;9.07;nan
7888;BME280;3989;48.810;9.208;2023-04-19T03:05:35;99240.56;;;9.04;nan
7888;BME280;3989;48.810;9.208;2023-04-19T03:08:02;99254.09;;;9.11;nan
7888;BME280;3989;48.810;9.208;2023-04-19T03:10:29;99250.91;;;9.07;nan
7888;BME280;3989;48.810;9.208;2023-04-19T03:12:55;99264.88;;;9.09;nan
7888;BME280;3989;48.810;9.208;2023-04-19T03:15:22;99181.41;;;8.59;nan
7888;BME280;3989;48.810;9.208;2023-04-19T03:17:48;99253.72;;;9.06;nan
7888;BME280;3989;48.810;9.208;2023-04-19T03:20:15;99258.19;;;9.05;nan
7888;BME280;3989;48.810;9.208;2023-04-19T03:22:43;99242.34;;;8.95;nan
7888;BME280;3989;48.810;9.208;2023-04-19T03:25:10;99238.81;;;8.95;nan
7888;BME280;3989;48.810;9.208;2023-04-19T03:27:38;99249.53;;;9.03;nan
7888;BME280;3989;48.810;9.208;2023-04-19T03:30:05;99252.34;;;9.02;nan
7888;BME280;3989;48.810;9.208;2023-04-19T03:32:32;99243.34;;;8.94;nan
7888;BME280;3989;48.810;9.208;2023-04-19T03:34:59;99246.81;;;8.95;nan
7888;BME280;3989;48.810;9.208;2023-04-19T03:37:25;99166.09;;;8.35;nan
7888;BME280;3989;48.810;9.208;2023-04-19T03:39:53;99253.59;;;8.89;nan
7888;BME280;3989;48.810;9.208;2023-04-19T03:42:20;99244.97;;;8.87;nan
7888;BME280;3989;48.810;9.208;2023-04-19T03:44:46;99162.81;;;8.41;nan
7888;BME280;3989;48.810;9.208;2023-04-19T03:47:13;99219.53;;;8.67;nan
7888;BME280;3989;48.810;9.208;2023-04-19T03:49:39;99250.91;;;8.81;nan
7888;BME280;3989;48.810;9.208;2023-04-19T03:52:06;99232.59;;;8.78;nan
7888;BME280;3989;48.810;9.208;2023-04-19T03:54:33;99236.59;;;8.82;nan
7888;BME280;3989;48.810;9.208;2023-04-19T03:57:01;99235.91;;;8.80;nan
7888;BME280;3989;48.810;9.208;2023-04-19T03:59:28;99219.19;;;8.62;nan
7888;BME280;3989;48.810;9.208;2023-04-19T04:01:55;99173.41;;;8.33;nan
7888;BME280;3989;48.810;9.208;2023-04-19T04:04:21;99192.47;;;8.28;nan
7888;BME280;3989;48.810;9.208;2023-04-19T04:06:48;99185.09;;;8.22;nan
7888;BME280;3989;48.810;9.208;2023-04-19T04:09:15;99216.84;;;8.41;nan
7888;BME280;3989;48.810;9.208;2023-04-19T04:11:42;99251.78;;;8.47;nan
7888;BME280;3989;48.810;9.208;2023-04-19T04:14:10;99180.25;;;8.00;nan
7888;BME280;3989;48.810;9.208;2023-04-19T04:16:36;99234.56;;;8.33;nan
7888;BME280;3989;48.810;9.208;2023-04-19T04:19:03;99192.41;;;8.03;nan
7888;BME280;3989;48.810;9.208;2023-04-19T04:21:29;99249.59;;;8.42;nan
7888;BME280;3989;48.810;9.208;2023-04-19T04:23:56;99181.75;;;8.03;nan
7888;BME280;3989;48.810;9.208;2023-04-19T04:26:23;99133.44;;;7.81;nan
7888;BME280;3989;48.810;9.208;2023-04-19T04:28:54;99247.84;;;8.51;nan
7888;BME280;3989;48.810;9.208;2023-04-19T04:31:22;99166.22;;;8.08;nan
7888;BME280;3989;48.810;9.208;2023-04-19T04:33:50;99215.47;;;8.37;nan
7888;BME280;3989;48.810;9.208;2023-04-19T04:36:17;99246.91;;;8.60;nan
7888;BME280;3989;48.810;9.208;2023-04-19T04:38:44;99248.59;;;8.61;nan
7888;BME280;3989;48.810;9.208;2023-04-19T04:41:11;99230.22;;;8.50;nan
7888;BME280;3989;48.810;9.208;2023-04-19T04:43:37;99194.81;;;8.31;nan
7888;BME280;3989;48.810;9.208;2023-04-19T04:46:04;99168.91;;;8.16;nan
7888;BME280;3989;48.810;9.208;2023-04-19T04:48:32;99224.91;;;8.50;nan
7888;BME280;3989;48.810;9.208;2023-04-19T04:51:02;99201.34;;;8.37;nan
7888;BME280;3989;48.810;9.208;2023-04-19T04:53:29;99244.31;;;8.68;nan
7888;BME280;3989;48.810;9.208;2023-04-19T04:55:58;99179.25;;;8.36;nan
7888;BME280;3989;48.810;9.208;2023-04-19T04:58:25;99254.56;;;8.80;nan
7888;BME280;3989;48.810;9.208;2023-04-19T05:00:52;99181.75;;;8.38;nan
7888;BME280;3989;48.810;9.208;2023-04-19T05:03:19;99255.00;;;8.76;nan
7888;BME280;3989;48.810;9.208;2023-04-19T05:05:47;99233.22;;;8.72;nan
7888;BME280;3989;48.810;9.208;2023-04-19T05:08:14;99211.56;;;8.67;nan
7888;BME280;3989;48.810;9.208;2023-04-19T05:10:41;99218.75;;;8.75;nan
7888;BME280;3989;48.810;9.208;2023-04-19T05:13:12;99193.59;;;8.69;nan
7888;BME280;3989;48.810;9.208;2023-04-19T05:15:43;99161.75;;;8.52;nan
7888;BME280;3989;48.810;9.208;2023-04-19T05:18:10;99268.53;;;9.08;nan
7888;BME280;3989;48.810;9.208;2023-04-19T05:20:37;99146.13;;;8.31;nan
7888;BME280;3989;48.810;9.208;2023-04-19T05:23:06;99241.31;;;8.88;nan
7888;BME280;3989;48.810;9.208;2023-04-19T05:25:35;99188.56;;;8.58;nan
7888;BME280;3989;48.810;9.208;2023-04-19T05:28:03;99267.19;;;9.04;nan
7888;BME280;3989;48.810;9.208;2023-04-19T05:30:30;99183.53;;;8.55;nan
7888;BME280;3989;48.810;9.208;2023-04-19T05:32:56;99272.22;;;9.07;nan
7888;BME280;3989;48.810;9.208;2023-04-19T05:35:24;99128.34;;;8.31;nan
7888;BME280;3989;48.810;9.208;2023-04-19T05:37:50;99233.03;;;9.00;nan
7888;BME280;3989;48.810;9.208;2023-04-19T05:40:19;99129.53;;;8.37;nan
7888;BME280;3989;48.810;9.208;2023-04-19T05:42:46;99196.88;;;8.89;nan
7888;BME280;3989;48.810;9.208;2023-04-19T05:45:14;99168.41;;;8.81;nan
7888;BME280;3989;48.810;9.208;2023-04-19T05:47:41;99285.19;;;9.44;nan
7888;BME280;3989;48.810;9.208;2023-04-19T05:50:08;99263.38;;;9.40;nan
7888;BME280;3989;48.810;9.208;2023-04-19T05:52:35;99265.06;;;9.41;nan
7888;BME280;3989;48.810;9.208;2023-04-19T05:55:02;99176.19;;;8.75;nan
7888;BME280;3989;48.810;9.208;2023-04-19T05:57:30;99271.16;;;9.34;nan
7888;BME280;3989;48.810;9.208;2023-04-19T05:59:57;99279.16;;;9.34;nan
7888;BME280;3989;48.810;9.208;2023-04-19T06:02:23;99226.66;;;9.18;nan
7888;BME280;3989;48.810;9.208;2023-04-19T06:04:50;99109.38;;;8.52;nan
7888;BME280;3989;48.810;9.208;2023-04-19T06:07:17;99188.44;;;9.02;nan
7888;BME280;3989;48.810;9.208;2023-04-19T06:09:43;99237.88;;;9.30;nan
7888;BME280;3989;48.810;9.208;2023-04-19T06:12:10;99273.63;;;9.61;nan
7888;BME280;3989;48.810;9.208;2023-04-19T06:14:38;99115.44;;;8.70;nan
7888;BME280;3989;48.810;9.208;2023-04-19T06:17:05;99210.94;;;9.41;nan
7888;BME280;3989;48.810;9.208;2023-04-19T06:19:31;99272.56;;;9.88;nan
7888;BME280;3989;48.810;9.208;2023-04-19T06:21:58;99123.28;;;9.14;nan
7888;BME280;3989;48.810;9.208;2023-04-19T06:24:25;99268.66;;;10.24;nan
7888;BME280;3989;48.810;9.208;2023-04-19T06:26:52;99277.00;;;10.37;nan
7888;BME280;3989;48.810;9.208;2023-04-19T06:29:18;99269.16;;;10.28;nan
7888;BME280;3989;48.810;9.208;2023-04-19T06:31:49;99224.09;;;10.09;nan
7888;BME280;3989;48.810;9.208;2023-04-19T06:34:15;99209.78;;;10.01;nan
7888;BME280;3989;48.810;9.208;2023-04-19T06:36:42;99226.91;;;9.99;nan
7888;BME280;3989;48.810;9.208;2023-04-19T06:39:09;99273.16;;;10.32;nan
7888;BME280;3989;48.810;9.208;2023-04-19T06:41:35;99159.72;;;9.79;nan
7888;BME280;3989;48.810;9.208;2023-04-19T06:44:02;99275.84;;;10.64;nan
7888;BME280;3989;48.810;9.208;2023-04-19T06:46:29;99266.00;;;10.81;nan
7888;BME280;3989;48.810;9.208;2023-04-19T06:48:56;99275.00;;;10.96;nan
7888;BME280;3989;48.810;9.208;2023-04-19T06:51:23;99240.28;;;10.96;nan
7888;BME280;3989;48.810;9.208;2023-04-19T06:53:50;99268.44;;;11.23;nan
7888;BME280;3989;48.810;9.208;2023-04-19T06:56:16;99131.06;;;10.54;nan
7888;BME280;3989;48.810;9.208;2023-04-19T06:58:43;99179.69;;;10.96;nan
7888;BME280;3989;48.810;9.208;2023-04-19T07:01:10;99176.53;;;10.93;nan
7888;BME280;3989;48.810;9.208;2023-04-19T07:03:37;99246.66;;;11.50;nan
7888;BME280;3989;48.810;9.208;2023-04-19T07:06:05;99136.66;;;10.91;nan
7888;BME280;3989;48.810;9.208;2023-04-19T07:08:32;99199.13;;;11.21;nan
7888;BME280;3989;48.810;9.208;2023-04-19T07:10:59;99241.84;;;11.76;nan
7888;BME280;3989;48.810;9.208;2023-04-19T07:13:25;99116.50;;;11.20;nan
7888;BME280;3989;48.810;9.208;2023-04-19T07:15:52;99258.88;;;12.14;nan
7888;BME280;3989;48.810;9.208;2023-04-19T07:18:19;99222.28;;;12.06;nan
7888;BME280;3989;48.810;9.208;2023-04-19T07:20:45;99204.69;;;12.12;nan
7888;BME280;3989;48.810;9.208;2023-04-19T07:23:15;99260.00;;;12.42;nan
7888;BME280;3989;48.810;9.208;2023-04-19T07:25:42;99258.31;;;12.41;nan
7888;BME280;3989;48.810;9.208;2023-04-19T07:28:09;99137.34;;;11.55;nan
7888;BME280;3989;48.810;9.208;2023-04-19T07:30:35;99211.13;;;12.03;nan
7888;BME280;3989;48.810;9.208;2023-04-19T07:33:02;99247.34;;;12.36;nan
7888;BME280;3989;48.810;9.208;2023-04-19T07:35:32;99196.84;;;12.10;nan
7888;BME280;3989;48.810;9.208;2023-04-19T07:37:59;99215.75;;;12.09;nan
7888;BME280;3989;48.810;9.208;2023-04-19T07:40:27;99251.09;;;12.50;nan
7888;BME280;3989;48.810;9.208;2023-04-19T07:42:54;99188.88;;;12.25;nan
7888;BME280;3989;48.810;9.208;2023-04-19T07:45:21;99248.25;;;12.89;nan
7888;BME280;3989;48.810;9.208;2023-04-19T07:47:48;99245.78;;;13.17;nan
7888;BME280;3989;48.810;9.208;2023-04-19T07:50:15;99235.00;;;13.25;nan
7888;BME280;3989;48.810;9.208;2023-04-19T07:52:41;99195.78;;;13.09;nan
7888;BME280;3989;48.810;9.208;2023-04-19T07:55:08;99219.53;;;13.12;nan
7888;BME280;3989;48.810;9.208;2023-04-19T07:57:36;99167.47;;;12.77;nan
7888;BME280;3989;48.810;9.208;2023-04-19T08:00:04;99143.66;;;12.82;nan
7888;BME280;3989;48.810;9.208;2023-04-19T08:02:30;99219.59;;;13.04;nan
7888;BME280;3989;48.810;9.208;2023-04-19T08:04:57;99225.66;;;13.21;nan
7888;BME280;3989;48.810;9.208;2023-04-19T08:07:24;99217.41;;;13.22;nan
7888;BME280;3989;48.810;9.208;2023-04-19T08:09:50;99225.06;;;13.54;nan
7888;BME280;3989;48.810;9.208;2023-04-19T08:12:17;99151.31;;;13.44;nan
7888;BME280;3989;48.810;9.208;2023-04-19T08:14:45;99183.56;;;13.86;nan
7888;BME280;3989;48.810;9.208;2023-04-19T08:17:13;99135.09;;;13.66;nan
7888;BME280;3989;48.810;9.208;2023-04-19T08:19:40;99143.22;;;13.73;nan
7888;BME280;3989;48.810;9.208;2023-04-19T08:22:07;99103.94;;;13.51;nan
7888;BME280;3989;48.810;9.208;2023-04-19T08:24:33;99211.13;;;13.95;nan
7888;BME280;3989;48.810;9.208;2023-04-19T08:27:00;99210.88;;;14.11;nan
7888;BME280;3989;48.810;9.208;2023-04-19T08:29:26;99200.47;;;14.01;nan
7888;BME280;3989;48.810;9.208;2023-04-19T08:31:54;99221.34;;;14.06;nan
7888;BME280;3989;48.810;9.208;2023-04-19T08:34:21;99221.56;;;14.04;nan
7888;BME280;3989;48.810;9.208;2023-04-19T08:36:47;99170.75;;;13.67;nan
7888;BME280;3989;48.810;9.208;2023-04-19T08:39:14;99172.88;;;13.36;nan
7888;BME280;3989;48.810;9.208;2023-04-19T08:41:41;99102.38;;;12.77;nan
7888;BME280;3989;48.810;9.208;2023-04-19T08:44:09;99203.81;;;13.53;nan
7888;BME280;3989;48.810;9.208;2023-04-19T08:46:37;99185.97;;;13.60;nan
7888;BME280;3989;48.810;9.208;2023-04-19T08:49:05;99204.59;;;14.04;nan
7888;BME280;3989;48.810;9.208;2023-04-19T08:51:32;99179.25;;;14.28;nan
7888;BME280;3989;48.810;9.208;2023-04-19T08:54:00;99131.00;;;13.92;nan
7888;BME280;3989;48.810;9.208;2023-04-19T08:56:29;99188.88;;;14.22;nan
7888;BME280;3989;48.810;9.208;2023-04-19T08:58:56;99203.59;;;14.26;nan
7888;BME280;3989;48.810;9.208;2023-04-19T09:01:22;99161.75;;;13.89;nan
7888;BME280;3989;48.810;9.208;2023-04-19T09:03:49;99211.13;;;13.95;nan
7888;BME280;3989;48.810;9.208;2023-04-19T09:06:17;99105.06;;;13.21;nan
7888;BME280;3989;48.810;9.208;2023-04-19T09:08:44;99065.22;;;13.03;nan
7888;BME280;3989;48.810;9.208;2023-04-19T09:11:10;99153.78;;;13.60;nan
7888;BME280;3989;48.810;9.208;2023-04-19T09:13:37;99183.13;;;14.04;nan
7888;BME280;3989;48.810;9.208;2023-04-19T09:16:05;99192.06;;;14.47;nan
7888;BME280;3989;48.810;9.208;2023-04-19T09:18:32;99149.03;;;13.98;nan
7888;BME280;3989;48.810;9.208;2023-04-19T09:20:59;99137.28;;;13.99;nan
7888;BME280;3989;48.810;9.208;2023-04-19T09:23:27;99197.00;;;14.29;nan
7888;BME280;3989;48.810;9.208;2023-04-19T09:25:55;99120.03;;;14.08;nan
7888;BME280;3989;48.810;9.208;2023-04-19T09:28:22;99184.34;;;14.65;nan
7888;BME280;3989;48.810;9.208;2023-04-19T09:30:49;99171.47;;;14.54;nan
7888;BME280;3989;48.810;9.208;2023-04-19T09:33:31;99180.38;;;14.89;nan
7888;BME280;3989;48.810;9.208;2023-04-19T09:35:59;99138.72;;;14.71;nan
7888;BME280;3989;48.810;9.208;2023-04-19T09:38:27;99080.28;;;14.80;nan
7888;BME280;3989;48.810;9.208;2023-04-19T09:41:05;99175.53;;;15.46;nan
7888;BME280;3989;48.810;9.208;2023-04-19T09:43:32;99141.88;;;15.57;nan
7888;BME280;3989;48.810;9.208;2023-04-19T09:45:59;99144.25;;;15.80;nan
7888;BME280;3989;48.810;9.208;2023-04-19T09:48:25;99102.63;;;15.89;nan
7888;BME280;3989;48.810;9.208;2023-04-19T09:50:54;99150.72;;;16.24;nan
7888;BME280;3989;48.810;9.208;2023-04-19T09:53:22;99151.75;;;16.23;nan
7888;BME280;3989;48.810;9.208;2023-04-19T09:55:50;99155.47;;;16.42;nan
7888;BME280;3989;48.810;9.208;2023-04-19T09:58:18;99087.53;;;16.47;nan
7888;BME280;3989;48.810;9.208;2023-04-19T10:00:46;99122.34;;;16.68;nan
7888;BME280;3989;48.810;9.208;2023-04-19T10:03:13;99142.25;;;16.73;nan
7888;BME280;3989;48.810;9.208;2023-04-19T10:05:41;99029.31;;;15.87;nan
7888;BME280;3989;48.810;9.208;2023-04-19T10:08:08;99141.59;;;16.52;nan
7888;BME280;3989;48.810;9.208;2023-04-19T10:10:35;99126.88;;;16.02;nan
7888;BME280;3989;48.810;9.208;2023-04-19T10:13:06;99124.09;;;15.56;nan
7888;BME280;3989;48.810;9.208;2023-04-19T10:15:35;99118.34;;;15.24;nan
7888;BME280;3989;48.810;9.208;2023-04-19T10:18:01;99136.34;;;15.24;nan
7888;BME280;3989;48.810;9.208;2023-04-19T10:20:32;99151.63;;;15.23;nan
7888;BME280;3989;48.810;9.208;2023-04-19T10:23:01;99139.06;;;15.31;nan
7888;BME280;3989;48.810;9.208;2023-04-19T10:25:29;99054.69;;;14.84;nan
7888;BME280;3989;48.810;9.208;2023-04-19T10:27:56;99102.28;;;14.97;nan
7888;BME280;3989;48.810;9.208;2023-04-19T10:30:24;99133.81;;;15.16;nan
7888;BME280;3989;48.810;9.208;2023-04-19T10:32:53;99130.50;;;15.14;nan
7888;BME280;3989;48.810;9.208;2023-04-19T10:35:22;99088.47;;;14.65;nan
7888;BME280;3989;48.810;9.208;2023-04-19T10:38:05;99110.88;;;14.51;nan
7888;BME280;3989;48.810;9.208;2023-04-19T10:40:58;99133.16;;;14.24;nan
7888;BME280;3989;48.810;9.208;2023-04-19T10:43:28;99125.66;;;13.92;nan
7888;BME280;3989;48.810;9.208;2023-04-19T10:45:59;99061.25;;;13.49;nan
7888;BME280;3989;48.810;9.208;2023-04-19T10:48:37;99126.69;;;14.18;nan
7888;BME280;3989;48.810;9.208;2023-04-19T10:51:10;99089.16;;;14.25;nan
7888;BME280;3989;48.810;9.208;2023-04-19T10:53:49;99114.81;;;14.49;nan
7888;BME280;3989;48.810;9.208;2023-04-19T10:56:18;99047.44;;;14.23;nan
7888;BME280;3989;48.810;9.208;2023-04-19T10:59:15;99107.38;;;14.79;nan
7888;BME280;3989;48.810;9.208;2023-04-19T11:01:52;99048.28;;;14.23;nan
7888;BME280;3989;48.810;9.208;2023-04-19T11:04:21;99035.78;;;13.81;nan
7888;BME280;3989;48.810;9.208;2023-04-19T11:06:59;99090.56;;;13.72;nan
7888;BME280;3989;48.810;9.208;2023-04-19T11:09:31;99088.53;;;13.74;nan
7888;BME280;3989;48.810;9.208;2023-04-19T11:12:00;99061.03;;;13.51;nan
7888;BME280;3989;48.810;9.208;2023-04-19T11:14:30;99065.31;;;13.24;nan
7888;BME280;3989;48.810;9.208;2023-04-19T11:17:01;98999.78;;;12.61;nan
7888;BME280;3989;48.810;9.208;2023-04-19T11:19:27;99070.41;;;12.90;nan
7888;BME280;3989;48.810;9.208;2023-04-19T11:21:57;99075.41;;;12.78;nan
7888;BME280;3989;48.810;9.208;2023-04-19T11:24:25;98986.50;;;12.09;nan
7888;BME280;3989;48.810;9.208;2023-04-19T11:26:51;99080.47;;;12.73;nan
7888;BME280;3989;48.810;9.208;2023-04-19T11:29:18;99036.91;;;12.35;nan
7888;BME280;3989;48.810;9.208;2023-04-19T11:31:46;99074.56;;;12.34;nan
7888;BME280;3989;48.810;9.208;2023-04-19T11:34:14;98940.66;;;11.46;nan
7888;BME280;3989;48.810;9.208;2023-04-19T11:36:48;99075.75;;;12.17;nan
7888;BME280;3989;48.810;9.208;2023-04-19T11:39:15;99086.59;;;12.15;nan
7888;BME280;3989;48.810;9.208;2023-04-19T11:41:42;99074.44;;;12.13;nan
7888;BME280;3989;48.810;9.208;2023-04-19T11:44:12;99076.84;;;12.07;nan
7888;BME280;3989;48.810;9.208;2023-04-19T11:46:40;99076.41;;;11.96;nan
7888;BME280;3989;48.810;9.208;2023-04-19T11:49:06;99072.50;;;11.84;nan
7888;BME280;3989;48.810;9.208;2023-04-19T11:51:34;98955.34;;;10.74;nan
7888;BME280;3989;48.810;9.208;2023-04-19T11:54:01;98920.03;;;10.33;nan
7888;BME280;3989;48.810;9.208;2023-04-19T11:56:55;99074.34;;;10.99;nan
7888;BME280;3989;48.810;9.208;2023-04-19T11:59:23;99038.63;;;10.69;nan
7888;BME280;3989;48.810;9.208;2023-04-19T12:01:49;99067.19;;;10.61;nan
7888;BME280;3989;48.810;9.208;2023-04-19T12:04:16;99019.09;;;10.22;nan
7888;BME280;3989;48.810;9.208;2023-04-19T12:06:44;99077.06;;;10.44;nan
7888;BME280;3989;48.810;9.208;2023-04-19T12:09:10;99067.22;;;10.44;nan
7888;BME280;3989;48.810;9.208;2023-04-19T12:11:44;99036.78;;;10.23;nan
7888;BME280;3989;48.810;9.208;2023-04-19T12:14:12;99042.09;;;10.15;nan
7888;BME280;3989;48.810;9.208;2023-04-19T12:16:38;99005.47;;;9.84;nan
7888;BME280;3989;48.810;9.208;2023-04-19T12:19:10;99068.63;;;10.16;nan
7888;BME280;3989;48.810;9.208;2023-04-19T12:21:38;99064.09;;;10.09;nan
7888;BME280;3989;48.810;9.208;2023-04-19T12:24:06;98890.63;;;8.98;nan
7888;BME280;3989;48.810;9.208;2023-04-19T12:26:33;99067.97;;;9.98;nan
7888;BME280;3989;48.810;9.208;2023-04-19T12:29:00;99019.81;;;9.67;nan
7888;BME280;3989;48.810;9.208;2023-04-19T12:31:29;99022.31;;;9.61;nan
7888;BME280;3989;48.810;9.208;2023-04-19T12:33:56;99046.13;;;9.70;nan
7888;BME280;3989;48.810;9.208;2023-04-19T12:36:23;99073.63;;;9.87;nan
7888;BME280;3989;48.810;9.208;2023-04-19T12:38:50;99024.50;;;9.65;nan
7888;BME280;3989;48.810;9.208;2023-04-19T12:41:17;99062.94;;;10.03;nan
7888;BME280;3989;48.810;9.208;2023-04-19T12:43:45;98854.06;;;8.84;nan
7888;BME280;3989;48.810;9.208;2023-04-19T12:46:11;99047.63;;;9.97;nan
7888;BME280;3989;48.810;9.208;2023-04-19T12:48:38;99049.13;;;10.16;nan
7888;BME280;3989;48.810;9.208;2023-04-19T12:51:05;99054.25;;;10.09;nan
7888;BME280;3989;48.810;9.208;2023-04-19T12:53:32;99045.44;;;10.09;nan
7888;BME280;3989;48.810;9.208;2023-04-19T12:55:58;99041.31;;;10.14;nan
7888;BME280;3989;48.810;9.208;2023-04-19T12:58:26;99052.09;;;10.29;nan
7888;BME280;3989;48.810;9.208;2023-04-19T13:00:53;99044.28;;;10.27;nan
7888;BME280;3989;48.810;9.208;2023-04-19T13:03:19;99046.22;;;10.41;nan
7888;BME280;3989;48.810;9.208;2023-04-19T13:05:46;99031.75;;;10.36;nan
7888;BME280;3989;48.810;9.208;2023-04-19T13:08:13;99055.84;;;10.50;nan
7888;BME280;3989;48.810;9.208;2023-04-19T13:10:39;99022.75;;;10.29;nan
7888;BME280;3989;48.810;9.208;2023-04-19T13:13:06;99040.03;;;10.41;nan
7888;BME280;3989;48.810;9.208;2023-04-19T13:15:34;99040.88;;;10.49;nan
7888;BME280;3989;48.810;9.208;2023-04-19T13:18:00;98994.75;;;10.33;nan
7888;BME280;3989;48.810;9.208;2023-04-19T13:20:27;98982.88;;;10.35;nan
7888;BME280;3989;48.810;9.208;2023-04-19T13:22:53;98948.72;;;10.31;nan
7888;BME280;3989;48.810;9.208;2023-04-19T13:25:20;99010.28;;;10.60;nan
7888;BME280;3989;48.810;9.208;2023-04-19T13:27:46;98814.53;;;9.44;nan
7888;BME280;3989;48.810;9.208;2023-04-19T13:30:14;99000.66;;;10.59;nan
7888;BME280;3989;48.810;9.208;2023-04-19T13:32:42;98914.72;;;10.25;nan
7888;BME280;3989;48.810;9.208;2023-04-19T13:35:08;99011.31;;;10.90;nan
7888;BME280;3989;48.810;9.208;2023-04-19T13:37:35;99012.31;;;10.89;nan
7888;BME280;3989;48.810;9.208;2023-04-19T13:40:02;99000.50;;;10.83;nan
7888;BME280;3989;48.810;9.208;2023-04-19T13:42:29;99011.03;;;10.85;nan
7888;BME280;3989;48.810;9.208;2023-04-19T13:44:56;99005.19;;;10.81;nan
7888;BME280;3989;48.810;9.208;2023-04-19T13:47:22;98923.50;;;10.41;nan
7888;BME280;3989;48.810;9.208;2023-04-19T13:49:50;99004.22;;;11.05;nan
7888;BME280;3989;48.810;9.208;2023-04-19T13:52:17;98937.91;;;10.86;nan